sensor_id;sensor_type;location;lat;lon;timestamp;pressure;altitude;pressure_sealevel;temperature;humidity
69247;BME280;56358;56.328;43.992;2023-06-01T00:01:31;99882.25;;;11.63;84.28
69247;BME280;56358;56.328;43.992;2023-06-01T00:03:33;99857.38;;;11.51;83.86
69247;BME280;56358;56.328;43.992;2023-06-01T00:07:58;99908.94;;;11.74;84.17
69247;BME280;56358;56.328;43.992;2023-06-01T00:09:59;99844.22;;;11.48;84.47
69247;BME280;56358;56.328;43.992;2023-06-01T00:12:00;99912.31;;;11.86;84.09
69247;BME280;56358;56.328;43.992;2023-06-01T00:14:02;99915.88;;;11.87;83.78
69247;BME280;56358;56.328;43.992;2023-06-01T00:16:03;99817.50;;;11.37;83.77
69247;BME280;56358;56.328;43.992;2023-06-01T00:18:04;99817.25;;;11.40;83.81
69247;BME280;56358;56.328;43.992;2023-06-01T00:20:06;99906.13;;;11.96;83.65
69247;BME280;56358;56.328;43.992;2023-06-01T00:22:08;99911.38;;;11.97;83.77
69247;BME280;56358;56.328;43.992;2023-06-01T00:24:09;99899.06;;;11.95;83.64
69247;BME280;56358;56.328;43.992;2023-06-01T00:26:10;99902.16;;;12.00;83.24
69247;BME280;56358;56.328;43.992;2023-06-01T00:28:10;99909.25;;;12.01;83.44
69247;BME280;56358;56.328;43.992;2023-06-01T00:30:11;99838.16;;;11.56;83.02
69247;BME280;56358;56.328;43.992;2023-06-01T00:32:12;99916.88;;;12.05;83.27
69247;BME280;56358;56.328;43.992;2023-06-01T00:34:13;99918.72;;;12.05;83.46
69247;BME280;56358;56.328;43.992;2023-06-01T00:36:14;99923.09;;;12.06;83.37
69247;BME280;56358;56.328;43.992;2023-06-01T00:38:15;99872.63;;;11.70;83.04
69247;BME280;56358;56.328;43.992;2023-06-01T00:40:15;99930.44;;;12.04;83.29
69247;BME280;56358;56.328;43.992;2023-06-01T00:42:16;99934.53;;;12.08;82.85
69247;BME280;56358;56.328;43.992;2023-06-01T00:44:17;99932.16;;;12.05;82.50
69247;BME280;56358;56.328;43.992;2023-06-01T00:46:18;99920.28;;;11.98;82.86
69247;BME280;56358;56.328;43.992;2023-06-01T00:48:19;99930.88;;;12.09;82.56
69247;BME280;56358;56.328;43.992;2023-06-01T00:50:22;99938.25;;;12.07;82.13
69247;BME280;56358;56.328;43.992;2023-06-01T00:52:23;99940.94;;;12.07;82.88
69247;BME280;56358;56.328;43.992;2023-06-01T00:54:24;99921.66;;;11.92;82.79
69247;BME280;56358;56.328;43.992;2023-06-01T00:56:25;99940.78;;;12.09;82.30
69247;BME280;56358;56.328;43.992;2023-06-01T00:58:26;99824.31;;;11.31;82.54
69247;BME280;56358;56.328;43.992;2023-06-01T01:00:29;99949.53;;;12.11;82.66
69247;BME280;56358;56.328;43.992;2023-06-01T01:02:30;99944.00;;;12.12;82.79
69247;BME280;56358;56.328;43.992;2023-06-01T01:04:32;99949.00;;;12.07;82.74
69247;BME280;56358;56.328;43.992;2023-06-01T01:08:47;99958.16;;;12.14;82.42
69247;BME280;56358;56.328;43.992;2023-06-01T01:11:01;99934.41;;;12.00;82.47
69247;BME280;56358;56.328;43.992;2023-06-01T01:15:29;99957.31;;;12.14;82.37
69247;BME280;56358;56.328;43.992;2023-06-01T01:17:43;99914.59;;;11.91;82.43
69247;BME280;56358;56.328;43.992;2023-06-01T01:22:55;99921.41;;;11.95;82.53
69247;BME280;56358;56.328;43.992;2023-06-01T01:25:25;99962.97;;;12.20;82.29
69247;BME280;56358;56.328;43.992;2023-06-01T01:27:45;99936.38;;;12.07;81.89
69247;BME280;56358;56.328;43.992;2023-06-01T01:29:54;99952.63;;;12.16;81.82
69247;BME280;56358;56.328;43.992;2023-06-01T01:32:00;99954.63;;;12.23;82.10
69247;BME280;56358;56.328;43.992;2023-06-01T01:34:02;99920.28;;;11.98;82.08
69247;BME280;56358;56.328;43.992;2023-06-01T01:36:05;99962.25;;;12.28;81.77
69247;BME280;56358;56.328;43.992;2023-06-01T01:38:07;99961.09;;;12.31;81.41
69247;BME280;56358;56.328;43.992;2023-06-01T01:40:08;99959.97;;;12.33;81.10
69247;BME280;56358;56.328;43.992;2023-06-01T01:42:09;99976.09;;;12.33;80.68
69247;BME280;56358;56.328;43.992;2023-06-01T01:44:10;99975.25;;;12.33;80.71
69247;BME280;56358;56.328;43.992;2023-06-01T01:48:23;99969.75;;;12.24;80.72
69247;BME280;56358;56.328;43.992;2023-06-01T01:50:37;99963.25;;;12.17;80.47
69247;BME280;56358;56.328;43.992;2023-06-01T01:52:41;99985.88;;;12.24;80.64
69247;BME280;56358;56.328;43.992;2023-06-01T01:54:44;99990.81;;;12.29;80.07
69247;BME280;56358;56.328;43.992;2023-06-01T01:56:46;100005.25;;;12.28;80.32
69247;BME280;56358;56.328;43.992;2023-06-01T01:58:48;99997.31;;;12.27;80.06
69247;BME280;56358;56.328;43.992;2023-06-01T02:00:49;99941.72;;;11.88;80.60
69247;BME280;56358;56.328;43.992;2023-06-01T02:02:50;100002.56;;;12.18;80.41
69247;BME280;56358;56.328;43.992;2023-06-01T02:04:51;99995.34;;;12.19;80.66
69247;BME280;56358;56.328;43.992;2023-06-01T02:06:51;99999.72;;;12.20;79.99
69247;BME280;56358;56.328;43.992;2023-06-01T02:08:52;100001.16;;;12.24;79.55
69247;BME280;56358;56.328;43.992;2023-06-01T02:10:53;100016.13;;;12.27;80.13
69247;BME280;56358;56.328;43.992;2023-06-01T02:12:54;100010.63;;;12.28;79.59
69247;BME280;56358;56.328;43.992;2023-06-01T02:14:55;100003.16;;;12.22;79.41
69247;BME280;56358;56.328;43.992;2023-06-01T02:16:56;100005.66;;;12.33;79.17
69247;BME280;56358;56.328;43.992;2023-06-01T02:18:57;100013.59;;;12.35;79.20
69247;BME280;56358;56.328;43.992;2023-06-01T02:21:00;100018.97;;;12.35;79.31
69247;BME280;56358;56.328;43.992;2023-06-01T02:23:01;100024.91;;;12.38;79.79
69247;BME280;56358;56.328;43.992;2023-06-01T02:25:02;100008.50;;;12.32;78.93
69247;BME280;56358;56.328;43.992;2023-06-01T02:27:06;100022.66;;;12.44;78.30
69247;BME280;56358;56.328;43.992;2023-06-01T02:29:07;100029.28;;;12.49;78.44
69247;BME280;56358;56.328;43.992;2023-06-01T02:31:08;100038.59;;;12.55;78.27
69247;BME280;56358;56.328;43.992;2023-06-01T02:33:09;99959.28;;;12.12;77.69
69247;BME280;56358;56.328;43.992;2023-06-01T02:35:09;100037.22;;;12.61;76.86
69247;BME280;56358;56.328;43.992;2023-06-01T02:37:10;100048.94;;;12.60;77.44
69247;BME280;56358;56.328;43.992;2023-06-01T02:39:12;100047.25;;;12.58;77.24
69247;BME280;56358;56.328;43.992;2023-06-01T02:41:12;100031.00;;;12.50;77.26
69247;BME280;56358;56.328;43.992;2023-06-01T02:43:13;100053.59;;;12.57;76.77
69247;BME280;56358;56.328;43.992;2023-06-01T02:45:14;100051.06;;;12.56;76.82
69247;BME280;56358;56.328;43.992;2023-06-01T02:47:14;100050.91;;;12.57;77.05
69247;BME280;56358;56.328;43.992;2023-06-01T02:49:15;100056.31;;;12.57;77.20
69247;BME280;56358;56.328;43.992;2023-06-01T02:51:16;99931.41;;;11.83;77.12
69247;BME280;56358;56.328;43.992;2023-06-01T02:53:17;100052.06;;;12.55;76.71
69247;BME280;56358;56.328;43.992;2023-06-01T02:55:17;100064.50;;;12.56;76.09
69247;BME280;56358;56.328;43.992;2023-06-01T02:57:18;100059.56;;;12.51;76.02
69247;BME280;56358;56.328;43.992;2023-06-01T02:59:19;100053.19;;;12.52;76.16
69247;BME280;56358;56.328;43.992;2023-06-01T03:01:20;100054.75;;;12.55;75.99
69247;BME280;56358;56.328;43.992;2023-06-01T03:03:21;100062.13;;;12.53;75.60
69247;BME280;56358;56.328;43.992;2023-06-01T03:05:22;100060.56;;;12.50;75.27
69247;BME280;56358;56.328;43.992;2023-06-01T03:07:22;100067.66;;;12.51;75.79
69247;BME280;56358;56.328;43.992;2023-06-01T03:09:23;100074.16;;;12.49;75.63
69247;BME280;56358;56.328;43.992;2023-06-01T03:11:24;100080.22;;;12.51;75.50
69247;BME280;56358;56.328;43.992;2023-06-01T03:13:45;100066.66;;;12.43;75.51
69247;BME280;56358;56.328;43.992;2023-06-01T03:15:45;100082.50;;;12.55;75.45
69247;BME280;56358;56.328;43.992;2023-06-01T03:17:46;100090.41;;;12.57;75.25
69247;BME280;56358;56.328;43.992;2023-06-01T03:19:47;100090.53;;;12.46;74.86
69247;BME280;56358;56.328;43.992;2023-06-01T03:21:47;100103.16;;;12.65;74.79
69247;BME280;56358;56.328;43.992;2023-06-01T03:23:48;100104.13;;;12.73;74.10
69247;BME280;56358;56.328;43.992;2023-06-01T03:25:49;100103.72;;;12.78;73.94
69247;BME280;56358;56.328;43.992;2023-06-01T03:27:51;100114.91;;;12.83;74.00
69247;BME280;56358;56.328;43.992;2023-06-01T03:29:51;100105.97;;;12.83;73.66
69247;BME280;56358;56.328;43.992;2023-06-01T03:31:52;100111.91;;;12.86;73.50
69247;BME280;56358;56.328;43.992;2023-06-01T03:33:53;100119.25;;;12.84;73.43
69247;BME280;56358;56.328;43.992;2023-06-01T03:35:54;100112.75;;;12.87;73.57
69247;BME280;56358;56.328;43.992;2023-06-01T03:37:54;100121.81;;;12.86;72.96
69247;BME280;56358;56.328;43.992;2023-06-01T03:39:55;100117.56;;;12.73;73.21
69247;BME280;56358;56.328;43.992;2023-06-01T03:41:56;100118.56;;;12.63;73.25
69247;BME280;56358;56.328;43.992;2023-06-01T03:43:56;100109.94;;;12.69;73.41
69247;BME280;56358;56.328;43.992;2023-06-01T03:45:57;100109.81;;;12.70;73.05
69247;BME280;56358;56.328;43.992;2023-06-01T03:47:58;100118.31;;;12.76;72.62
69247;BME280;56358;56.328;43.992;2023-06-01T03:49:59;100124.78;;;12.83;72.13
69247;BME280;56358;56.328;43.992;2023-06-01T03:51:59;100131.03;;;12.93;71.87
69247;BME280;56358;56.328;43.992;2023-06-01T03:54:00;100112.59;;;12.98;71.08
69247;BME280;56358;56.328;43.992;2023-06-01T03:56:01;100125.31;;;13.16;70.93
69247;BME280;56358;56.328;43.992;2023-06-01T03:58:03;100132.69;;;13.23;70.60
69247;BME280;56358;56.328;43.992;2023-06-01T04:00:06;100118.34;;;13.33;70.41
69247;BME280;56358;56.328;43.992;2023-06-01T04:02:19;100137.75;;;13.46;70.37
69247;BME280;56358;56.328;43.992;2023-06-01T04:04:24;100103.00;;;13.43;69.35
69247;BME280;56358;56.328;43.992;2023-06-01T04:06:27;100134.97;;;13.66;68.85
69247;BME280;56358;56.328;43.992;2023-06-01T04:08:29;100123.28;;;13.75;68.58
69247;BME280;56358;56.328;43.992;2023-06-01T04:10:30;100135.56;;;13.87;67.54
69247;BME280;56358;56.328;43.992;2023-06-01T04:12:31;100114.47;;;13.83;67.15
69247;BME280;56358;56.328;43.992;2023-06-01T04:14:32;100107.84;;;13.77;67.21
69247;BME280;56358;56.328;43.992;2023-06-01T04:16:33;100126.75;;;13.95;67.53
69247;BME280;56358;56.328;43.992;2023-06-01T04:18:33;100130.69;;;14.01;67.61
69247;BME280;56358;56.328;43.992;2023-06-01T04:20:34;100146.81;;;14.11;67.31
69247;BME280;56358;56.328;43.992;2023-06-01T04:22:39;100078.59;;;13.82;66.79
69247;BME280;56358;56.328;43.992;2023-06-01T04:24:40;100144.13;;;14.29;66.55
69247;BME280;56358;56.328;43.992;2023-06-01T04:26:41;100128.88;;;14.19;66.63
69247;BME280;56358;56.328;43.992;2023-06-01T04:28:42;100140.88;;;14.25;66.39
69247;BME280;56358;56.328;43.992;2023-06-01T04:30:46;100030.03;;;13.46;66.26
69247;BME280;56358;56.328;43.992;2023-06-01T04:32:51;100113.84;;;13.89;66.37
69247;BME280;56358;56.328;43.992;2023-06-01T04:34:54;100145.66;;;14.13;66.67
69247;BME280;56358;56.328;43.992;2023-06-01T04:36:57;100152.28;;;14.19;66.30
69247;BME280;56358;56.328;43.992;2023-06-01T04:38:58;100160.31;;;14.29;65.84
69247;BME280;56358;56.328;43.992;2023-06-01T04:40:58;100147.63;;;14.39;65.55
69247;BME280;56358;56.328;43.992;2023-06-01T04:42:59;100100.59;;;14.23;65.16
69247;BME280;56358;56.328;43.992;2023-06-01T04:45:03;100146.72;;;14.66;64.96
69247;BME280;56358;56.328;43.992;2023-06-01T04:47:06;100122.03;;;14.61;64.51
69247;BME280;56358;56.328;43.992;2023-06-01T04:49:08;100111.81;;;14.65;62.93
69247;BME280;56358;56.328;43.992;2023-06-01T04:51:13;100158.03;;;14.88;63.52
69247;BME280;56358;56.328;43.992;2023-06-01T04:53:19;100154.91;;;14.93;62.94
69247;BME280;56358;56.328;43.992;2023-06-01T04:55:21;100134.47;;;14.90;63.42
69247;BME280;56358;56.328;43.992;2023-06-01T04:57:22;100159.97;;;15.14;63.55
69247;BME280;56358;56.328;43.992;2023-06-01T04:59:23;100162.34;;;15.17;62.34
69247;BME280;56358;56.328;43.992;2023-06-01T05:01:26;100158.84;;;15.24;63.06
69247;BME280;56358;56.328;43.992;2023-06-01T05:03:29;100158.84;;;15.24;62.59
69247;BME280;56358;56.328;43.992;2023-06-01T05:05:30;100169.88;;;15.31;62.27
69247;BME280;56358;56.328;43.992;2023-06-01T05:07:31;100164.53;;;15.39;62.21
69247;BME280;56358;56.328;43.992;2023-06-01T05:09:31;100173.31;;;15.41;61.94
69247;BME280;56358;56.328;43.992;2023-06-01T05:11:33;100170.31;;;15.45;61.78
69247;BME280;56358;56.328;43.992;2023-06-01T05:13:35;100170.66;;;15.50;61.85
69247;BME280;56358;56.328;43.992;2023-06-01T05:15:35;100176.63;;;15.62;61.23
69247;BME280;56358;56.328;43.992;2023-06-01T05:17:36;100123.69;;;15.42;60.46
69247;BME280;56358;56.328;43.992;2023-06-01T05:19:38;100179.44;;;15.78;60.70
69247;BME280;56358;56.328;43.992;2023-06-01T05:21:42;100188.25;;;15.80;60.10
69247;BME280;56358;56.328;43.992;2023-06-01T05:23:43;100169.97;;;15.74;60.57
69247;BME280;56358;56.328;43.992;2023-06-01T05:25:44;100171.56;;;15.85;60.39
69247;BME280;56358;56.328;43.992;2023-06-01T05:27:45;100180.38;;;15.95;60.24
69247;BME280;56358;56.328;43.992;2023-06-01T05:29:45;100188.84;;;16.00;60.17
69247;BME280;56358;56.328;43.992;2023-06-01T05:31:46;100186.50;;;15.97;59.78
69247;BME280;56358;56.328;43.992;2023-06-01T05:33:47;100172.81;;;15.99;60.12
69247;BME280;56358;56.328;43.992;2023-06-01T05:35:48;100197.66;;;16.02;59.61
69247;BME280;56358;56.328;43.992;2023-06-01T05:37:48;100186.69;;;16.04;58.93
69247;BME280;56358;56.328;43.992;2023-06-01T05:39:49;100178.41;;;16.05;58.71
69247;BME280;56358;56.328;43.992;2023-06-01T05:41:50;100180.78;;;16.08;58.64
69247;BME280;56358;56.328;43.992;2023-06-01T05:43:50;100177.44;;;16.15;57.91
69247;BME280;56358;56.328;43.992;2023-06-01T05:45:51;100171.69;;;16.18;57.68
69247;BME280;56358;56.328;43.992;2023-06-01T05:47:52;100110.41;;;15.84;57.97
69247;BME280;56358;56.328;43.992;2023-06-01T05:49:53;100169.50;;;16.21;57.60
69247;BME280;56358;56.328;43.992;2023-06-01T05:51:53;100119.72;;;15.89;57.76
69247;BME280;56358;56.328;43.992;2023-06-01T05:53:54;100150.75;;;16.20;57.40
69247;BME280;56358;56.328;43.992;2023-06-01T05:55:55;100162.59;;;16.27;57.32
69247;BME280;56358;56.328;43.992;2023-06-01T05:57:55;100187.19;;;16.50;56.82
69247;BME280;56358;56.328;43.992;2023-06-01T05:59:56;100179.72;;;16.52;56.14
69247;BME280;56358;56.328;43.992;2023-06-01T06:01:57;100184.81;;;16.55;56.11
69247;BME280;56358;56.328;43.992;2023-06-01T06:03:58;100199.38;;;16.63;56.44
69247;BME280;56358;56.328;43.992;2023-06-01T06:06:00;100194.81;;;16.63;56.36
69247;BME280;56358;56.328;43.992;2023-06-01T06:08:00;100194.81;;;16.80;56.08
69247;BME280;56358;56.328;43.992;2023-06-01T06:10:02;100174.38;;;16.77;55.64
69247;BME280;56358;56.328;43.992;2023-06-01T06:12:06;100158.44;;;16.74;54.92
69247;BME280;56358;56.328;43.992;2023-06-01T06:14:27;100170.69;;;16.95;53.63
69247;BME280;56358;56.328;43.992;2023-06-01T06:16:27;100205.72;;;17.13;53.50
69247;BME280;56358;56.328;43.992;2023-06-01T06:18:28;100203.84;;;17.13;53.26
69247;BME280;56358;56.328;43.992;2023-06-01T06:20:29;100206.72;;;17.12;53.10
69247;BME280;56358;56.328;43.992;2023-06-01T06:22:29;100210.97;;;17.14;53.13
69247;BME280;56358;56.328;43.992;2023-06-01T06:24:30;100148.50;;;16.83;52.73
69247;BME280;56358;56.328;43.992;2023-06-01T06:26:31;100194.69;;;17.22;52.73
69247;BME280;56358;56.328;43.992;2023-06-01T06:28:32;100156.81;;;17.06;52.63
69247;BME280;56358;56.328;43.992;2023-06-01T06:30:32;100211.28;;;17.52;51.46
69247;BME280;56358;56.328;43.992;2023-06-01T06:32:33;100188.59;;;17.37;51.02
69247;BME280;56358;56.328;43.992;2023-06-01T06:34:35;100221.09;;;17.53;50.72
69247;BME280;56358;56.328;43.992;2023-06-01T06:36:36;100214.00;;;17.52;50.73
69247;BME280;56358;56.328;43.992;2023-06-01T06:38:37;100198.94;;;17.50;50.03
69247;BME280;56358;56.328;43.992;2023-06-01T06:40:38;100216.19;;;17.57;50.18
69247;BME280;56358;56.328;43.992;2023-06-01T06:42:38;100215.66;;;17.70;50.43
69247;BME280;56358;56.328;43.992;2023-06-01T06:44:39;100210.56;;;17.67;48.81
69247;BME280;56358;56.328;43.992;2023-06-01T06:46:40;100207.03;;;17.66;49.33
69247;BME280;56358;56.328;43.992;2023-06-01T06:48:40;100206.66;;;17.69;49.91
69247;BME280;56358;56.328;43.992;2023-06-01T06:50:41;100206.97;;;17.83;49.64
69247;BME280;56358;56.328;43.992;2023-06-01T06:52:44;100204.94;;;17.93;49.96
69247;BME280;56358;56.328;43.992;2023-06-01T06:54:45;100213.03;;;18.09;49.76
69247;BME280;56358;56.328;43.992;2023-06-01T06:56:46;100208.78;;;18.15;48.51
69247;BME280;56358;56.328;43.992;2023-06-01T06:58:47;100209.06;;;18.20;48.61
69247;BME280;56358;56.328;43.992;2023-06-01T07:00:47;100210.91;;;18.28;48.24
69247;BME280;56358;56.328;43.992;2023-06-01T07:02:48;100208.69;;;18.32;45.54
69247;BME280;56358;56.328;43.992;2023-06-01T07:04:49;100209.53;;;18.32;44.34
69247;BME280;56358;56.328;43.992;2023-06-01T07:06:50;100203.41;;;18.38;43.26
69247;BME280;56358;56.328;43.992;2023-06-01T07:08:52;100182.06;;;18.35;42.89
69247;BME280;56358;56.328;43.992;2023-06-01T07:10:53;100141.16;;;18.05;41.13
69247;BME280;56358;56.328;43.992;2023-06-01T07:12:54;100216.88;;;18.55;41.34
69247;BME280;56358;56.328;43.992;2023-06-01T07:14:55;100218.06;;;18.61;41.90
69247;BME280;56358;56.328;43.992;2023-06-01T07:16:55;100220.34;;;18.72;41.33
69247;BME280;56358;56.328;43.992;2023-06-01T07:18:56;100194.97;;;18.56;41.72
69247;BME280;56358;56.328;43.992;2023-06-01T07:20:57;100139.91;;;18.24;41.09
69247;BME280;56358;56.328;43.992;2023-06-01T07:22:58;100198.69;;;18.64;41.68
69247;BME280;56358;56.328;43.992;2023-06-01T07:24:59;100195.28;;;18.62;41.62
69247;BME280;56358;56.328;43.992;2023-06-01T07:27:00;100201.66;;;18.77;41.40
69247;BME280;56358;56.328;43.992;2023-06-01T07:29:01;100195.94;;;18.95;40.13
69247;BME280;56358;56.328;43.992;2023-06-01T07:31:02;100201.16;;;19.05;38.35
69247;BME280;56358;56.328;43.992;2023-06-01T07:33:03;100209.03;;;19.15;38.32
69247;BME280;56358;56.328;43.992;2023-06-01T07:35:04;100211.69;;;19.23;37.89
69247;BME280;56358;56.328;43.992;2023-06-01T07:37:06;100204.44;;;19.15;38.16
69247;BME280;56358;56.328;43.992;2023-06-01T07:39:07;100208.78;;;19.24;38.40
69247;BME280;56358;56.328;43.992;2023-06-01T07:41:09;100212.75;;;19.37;36.30
69247;BME280;56358;56.328;43.992;2023-06-01T07:43:11;100170.06;;;19.07;36.08
69247;BME280;56358;56.328;43.992;2023-06-01T07:45:12;100155.00;;;18.97;36.09
69247;BME280;56358;56.328;43.992;2023-06-01T07:47:13;100207.88;;;19.32;36.28
69247;BME280;56358;56.328;43.992;2023-06-01T07:49:14;100205.88;;;19.26;36.44
69247;BME280;56358;56.328;43.992;2023-06-01T07:51:16;100213.78;;;19.36;36.44
69247;BME280;56358;56.328;43.992;2023-06-01T07:53:17;100206.97;;;19.40;35.90
69247;BME280;56358;56.328;43.992;2023-06-01T07:55:18;100171.31;;;19.20;35.71
69247;BME280;56358;56.328;43.992;2023-06-01T07:57:19;100202.84;;;19.44;35.79
69247;BME280;56358;56.328;43.992;2023-06-01T07:59:20;100205.56;;;19.44;35.56
69247;BME280;56358;56.328;43.992;2023-06-01T08:01:28;100201.16;;;19.43;35.76
69247;BME280;56358;56.328;43.992;2023-06-01T08:03:29;100134.88;;;19.29;36.53
69247;BME280;56358;56.328;43.992;2023-06-01T08:05:30;100168.81;;;19.48;36.41
69247;BME280;56358;56.328;43.992;2023-06-01T08:07:30;100189.94;;;19.76;36.30
69247;BME280;56358;56.328;43.992;2023-06-01T08:09:31;100196.69;;;19.80;35.42
69247;BME280;56358;56.328;43.992;2023-06-01T08:11:32;100192.78;;;19.83;35.64
69247;BME280;56358;56.328;43.992;2023-06-01T08:13:33;100180.56;;;19.79;34.91
69247;BME280;56358;56.328;43.992;2023-06-01T08:15:36;100179.00;;;19.84;34.26
69247;BME280;56358;56.328;43.992;2023-06-01T08:17:38;100203.19;;;19.94;34.52
69247;BME280;56358;56.328;43.992;2023-06-01T08:19:40;100167.59;;;19.66;34.58
69247;BME280;56358;56.328;43.992;2023-06-01T08:21:42;100186.50;;;20.12;34.71
69247;BME280;56358;56.328;43.992;2023-06-01T08:23:43;100202.69;;;20.35;34.17
69247;BME280;56358;56.328;43.992;2023-06-01T08:25:45;100189.34;;;20.40;33.81
69247;BME280;56358;56.328;43.992;2023-06-01T08:27:46;100180.25;;;20.33;33.59
69247;BME280;56358;56.328;43.992;2023-06-01T08:29:48;100203.91;;;20.33;33.75
69247;BME280;56358;56.328;43.992;2023-06-01T08:31:49;100198.66;;;20.31;34.10
69247;BME280;56358;56.328;43.992;2023-06-01T08:33:51;100184.47;;;20.36;33.98
69247;BME280;56358;56.328;43.992;2023-06-01T08:35:52;100196.13;;;20.30;34.04
69247;BME280;56358;56.328;43.992;2023-06-01T08:37:53;100207.81;;;20.45;33.28
69247;BME280;56358;56.328;43.992;2023-06-01T08:39:54;100207.66;;;20.32;33.48
69247;BME280;56358;56.328;43.992;2023-06-01T08:42:07;100196.63;;;20.55;33.20
69247;BME280;56358;56.328;43.992;2023-06-01T08:44:10;100197.94;;;20.59;32.68
69247;BME280;56358;56.328;43.992;2023-06-01T08:46:13;100196.72;;;20.62;31.78
69247;BME280;56358;56.328;43.992;2023-06-01T08:48:16;100191.50;;;20.67;32.41
69247;BME280;56358;56.328;43.992;2023-06-01T08:50:18;100194.00;;;20.62;32.47
69247;BME280;56358;56.328;43.992;2023-06-01T08:52:20;100188.78;;;20.67;33.18
69247;BME280;56358;56.328;43.992;2023-06-01T08:54:22;100190.03;;;20.79;33.72
69247;BME280;56358;56.328;43.992;2023-06-01T08:56:23;100218.22;;;20.93;33.61
69247;BME280;56358;56.328;43.992;2023-06-01T08:58:25;100202.28;;;21.12;32.52
69247;BME280;56358;56.328;43.992;2023-06-01T09:00:27;100162.03;;;20.92;31.71
69247;BME280;56358;56.328;43.992;2023-06-01T09:02:28;100207.63;;;21.26;31.21
69247;BME280;56358;56.328;43.992;2023-06-01T09:04:49;100181.22;;;21.27;31.37
69247;BME280;56358;56.328;43.992;2023-06-01T09:06:50;100064.38;;;20.67;31.59
69247;BME280;56358;56.328;43.992;2023-06-01T09:08:52;100199.00;;;21.45;31.40
69247;BME280;56358;56.328;43.992;2023-06-01T09:10:53;100201.56;;;21.53;31.40
69247;BME280;56358;56.328;43.992;2023-06-01T09:12:54;100215.16;;;21.46;31.58
69247;BME280;56358;56.328;43.992;2023-06-01T09:17:14;100207.88;;;21.53;31.32
69247;BME280;56358;56.328;43.992;2023-06-01T09:19:42;100205.66;;;21.64;31.66
69247;BME280;56358;56.328;43.992;2023-06-01T09:21:59;100188.22;;;21.58;31.39
69247;BME280;56358;56.328;43.992;2023-06-01T09:24:18;100212.03;;;21.77;31.10
69247;BME280;56358;56.328;43.992;2023-06-01T09:26:39;100205.66;;;21.99;30.33
69247;BME280;56358;56.328;43.992;2023-06-01T09:30:52;100190.38;;;22.11;30.79
69247;BME280;56358;56.328;43.992;2023-06-01T09:35:46;100212.88;;;22.55;30.52
69247;BME280;56358;56.328;43.992;2023-06-01T09:37:56;100197.28;;;22.49;30.24
69247;BME280;56358;56.328;43.992;2023-06-01T09:39:57;100215.69;;;22.33;29.81
69247;BME280;56358;56.328;43.992;2023-06-01T09:41:59;100212.19;;;22.46;30.14
69247;BME280;56358;56.328;43.992;2023-06-01T09:44:02;100159.25;;;22.47;29.86
69247;BME280;56358;56.328;43.992;2023-06-01T09:46:10;100209.56;;;22.80;30.08
69247;BME280;56358;56.328;43.992;2023-06-01T09:48:17;100232.13;;;23.08;29.44
69247;BME280;56358;56.328;43.992;2023-06-01T09:50:36;100232.94;;;22.96;30.09
69247;BME280;56358;56.328;43.992;2023-06-01T09:52:38;100241.31;;;22.81;29.91
69247;BME280;56358;56.328;43.992;2023-06-01T09:54:47;100241.41;;;23.14;29.40
69247;BME280;56358;56.328;43.992;2023-06-01T09:56:48;100238.38;;;22.89;30.29
69247;BME280;56358;56.328;43.992;2023-06-01T09:58:56;100179.00;;;22.36;30.40
69247;BME280;56358;56.328;43.992;2023-06-01T10:00:59;100230.25;;;23.16;30.12
69247;BME280;56358;56.328;43.992;2023-06-01T10:03:00;100221.22;;;23.22;29.37
69247;BME280;56358;56.328;43.992;2023-06-01T10:05:01;100233.38;;;23.13;30.19
69247;BME280;56358;56.328;43.992;2023-06-01T10:07:05;100250.75;;;22.71;30.95
69247;BME280;56358;56.328;43.992;2023-06-01T10:09:10;100193.94;;;22.05;31.85
69247;BME280;56358;56.328;43.992;2023-06-01T10:11:16;100237.25;;;22.15;32.56
69247;BME280;56358;56.328;43.992;2023-06-01T10:13:17;100246.81;;;21.97;32.88
69247;BME280;56358;56.328;43.992;2023-06-01T10:15:18;100245.47;;;21.86;32.88
69247;BME280;56358;56.328;43.992;2023-06-01T10:17:20;100234.28;;;21.74;33.50
69247;BME280;56358;56.328;43.992;2023-06-01T10:19:21;100240.72;;;21.67;33.49
69247;BME280;56358;56.328;43.992;2023-06-01T10:21:23;100249.00;;;22.15;32.47
69247;BME280;56358;56.328;43.992;2023-06-01T10:23:24;100200.84;;;22.07;31.43
69247;BME280;56358;56.328;43.992;2023-06-01T10:25:30;100248.22;;;22.28;31.58
69247;BME280;56358;56.328;43.992;2023-06-01T10:27:52;100248.38;;;22.13;31.93
69247;BME280;56358;56.328;43.992;2023-06-01T10:29:55;100257.31;;;22.00;32.18
69247;BME280;56358;56.328;43.992;2023-06-01T10:31:56;100249.91;;;21.94;32.50
69247;BME280;56358;56.328;43.992;2023-06-01T10:33:58;100249.31;;;22.34;32.15
69247;BME280;56358;56.328;43.992;2023-06-01T10:35:59;100235.69;;;23.02;32.09
69247;BME280;56358;56.328;43.992;2023-06-01T10:40:20;100245.63;;;24.63;29.19
69247;BME280;56358;56.328;43.992;2023-06-01T10:42:36;100238.69;;;24.99;27.34
69247;BME280;56358;56.328;43.992;2023-06-01T10:46:42;100203.25;;;25.54;27.47
69247;BME280;56358;56.328;43.992;2023-06-01T10:48:54;100252.03;;;26.03;26.48
69247;BME280;56358;56.328;43.992;2023-06-01T10:51:18;100247.88;;;26.12;25.89
69247;BME280;56358;56.328;43.992;2023-06-01T10:53:30;100249.97;;;26.54;26.01
69247;BME280;56358;56.328;43.992;2023-06-01T10:55:31;100238.72;;;26.55;25.66
69247;BME280;56358;56.328;43.992;2023-06-01T10:57:42;100250.28;;;26.95;24.88
69247;BME280;56358;56.328;43.992;2023-06-01T11:00:21;100256.59;;;26.65;25.50